Weeting, United Kingdom
Current Conditions -  °F | °C
As of 10:05 PM on Thursday 27 Nov 2014 (Local Time) from EGUL Reporting Station
Haze Haze  
Wind Chill: 50°   Ceiling: 1500
Heat Index: 50°   Visibility: 6mi
Dew Point: 50°   Wind: 5mph
Humidity: 100%   Direction: 120°ESE
Pressure: 29.61"   Gusts: NA
Location:  52.46°N, 0.61°E
Report Text: EGUL 272205Z AUTO 12004KT 9000 BR BKN015 OVC060 10/10 A2961 RMK AO2 CIG 015V060 BKN V SCT
Loading
Personal Weather Stations






























Interactive Weather Map New forecast layout! Learn more

10-Day Weather Forecast

Advertisements
Track Severe Weather on mobile